Pueblito, New Mexico
Current Conditions -  °F | °C
As of 5:15 AM on Friday 24 Oct 2014 (Local Time) from KLAM Reporting Station
Clear Clear  
Wind Chill: 46°   Ceiling: Unl
Heat Index: 48°   Visibility: 10mi
Dew Point: 30°   Wind: 5mph
Humidity: 49%   Direction: 70°ENE
Pressure: 30.36"   Gusts: NA
Location:  36.054°N, 106.072°W
Report Text: KLAM 241115Z AUTO 07004KT 10SM CLR 09/M01 A3036 RMK AO2 T00901011
Loading
Personal Weather Stations






























Interactive Weather Map
Tropical Storm Tracking
New forecast layout! Learn more

10-Day Weather Forecast

Advertisements
Track Severe Weather on mobile